WetterOnline ( https://www.wetteronline.de )

Wetter aktuell Ratingen

Aktuelles Wetter: Essen (161m)

6-stündlich | Neueste Meldungen
Ortszeit Temperatur Wetter
Do, 18.08. 14:00 21.4° C bewölkt
Do, 18.08. 8:00 17.1° C Nebel
Do, 18.08. 2:00 17.1° C Nebel
Mi, 17.08. 20:00 21.7° C fast wolkenlos
Mi, 17.08. 14:00 22.2° C bewölkt
Mi, 17.08. 8:00 20.8° C bedeckt
Mi, 17.08. 2:00 22.6° C bewölkt
Di, 16.08. 20:00 26.8° C leicht bewölkt
Ortszeit Temperatur Wetter
Do, 18.08. 19:30 24.2° C fast wolkenlos
Do, 18.08. 19:20 24.2° C fast wolkenlos
Do, 18.08. 19:10 24.6° C leicht bewölkt
Do, 18.08. 19:00 24.8° C leicht bewölkt
Do, 18.08. 18:50 24.8° C wolkig
Do, 18.08. 18:40 24.3° C wolkig
Do, 18.08. 18:30 24.4° C fast wolkenlos
Do, 18.08. 18:00 24.3° C fast wolkenlos
Do, 18.08. 17:30 24.6° C fast wolkenlos
Do, 18.08. 17:00 24.1° C wolkenlos
Do, 18.08. 16:30 23.1° C leicht bewölkt
Ortszeit Relative Feuchte Sichtweite
Do, 18.08. 14:00 70% 16 km
Do, 18.08. 8:00 99% 1.2 km
Do, 18.08. 2:00 97% 2.4 km
Mi, 17.08. 20:00 76% 13 km
Mi, 17.08. 14:00 72% 18 km
Mi, 17.08. 8:00 68% 50 km
Mi, 17.08. 2:00 58% 40 km
Di, 16.08. 20:00 45% 40 km
Ortszeit Relative Feuchte Sichtweite
Do, 18.08. 19:30 55% 45 km
Do, 18.08. 19:20 55% -
Do, 18.08. 19:10 54% -
Do, 18.08. 19:00 55% 45 km
Do, 18.08. 18:50 55% -
Do, 18.08. 18:40 55% -
Do, 18.08. 18:30 55% 45 km
Do, 18.08. 18:00 55% 65 km
Do, 18.08. 17:30 53% 50 km
Do, 18.08. 17:00 55% 40 km
Do, 18.08. 16:30 59% 40 km
Ortszeit Niederschlagsmenge Niederschlagsart
Do, 18.08. 14:00 0.1 l/m2 in 6 Std. Regen
Do, 18.08. 8:00 0.0 l/m2 in 12 Std. -
Do, 18.08. 2:00 0.0 l/m2 in 6 Std. -
Mi, 17.08. 20:00 0.1 l/m2 in 12 Std. -
Mi, 17.08. 14:00 0.1 l/m2 in 6 Std. Regen
Mi, 17.08. 8:00 0.0 l/m2 in 12 Std. -
Mi, 17.08. 2:00 0.0 l/m2 in 6 Std. -
Di, 16.08. 20:00 0.0 l/m2 in 12 Std. -
Ortszeit Niederschlagsmenge Niederschlagsart
Do, 18.08. 19:30 0.0 l/m2 in 1 Std. -
Do, 18.08. 19:20 keine Meldung -
Do, 18.08. 19:10 keine Meldung -
Do, 18.08. 19:00 0.0 l/m2 in 1 Std. -
Do, 18.08. 18:50 keine Meldung -
Do, 18.08. 18:40 keine Meldung -
Do, 18.08. 18:30 0.0 l/m2 in 1 Std. -
Do, 18.08. 18:00 0.0 l/m2 in 1 Std. -
Do, 18.08. 17:30 0.0 l/m2 in 1 Std. -
Do, 18.08. 17:00 0.0 l/m2 in 1 Std. -
Do, 18.08. 16:30 0.0 l/m2 in 1 Std. -
Ortszeit Stärke Spitze Richtung
km/h Bft. km/h Grad Sektor
Do, 18.08. 14:00 11 2 18 320° NW
Do, 18.08. 8:00 4 1 18 180° S
Do, 18.08. 2:00 6 1 13 180° S
Mi, 17.08. 20:00 7 2 22 250° W
Mi, 17.08. 14:00 7 2 28 270° W
Mi, 17.08. 8:00 9 2 17 110° O
Mi, 17.08. 2:00 7 2 22 70° O
Di, 16.08. 20:00 2 1 26 310° NW
Ortszeit Stärke Spitze Richtung
km/h Bft. km/h Grad Sektor
Do, 18.08. 19:30 7 2 11 320° NW
Do, 18.08. 19:20 7 2 - 320° NW
Do, 18.08. 19:10 6 1 - 300° NW
Do, 18.08. 19:00 6 1 13 300° NW
Do, 18.08. 18:50 6 1 - 300° NW
Do, 18.08. 18:40 7 2 - 300° NW
Do, 18.08. 18:30 7 2 14 350° N
Do, 18.08. 18:00 7 2 14 330° NW
Do, 18.08. 17:30 4 1 14 350° N
Do, 18.08. 17:00 6 1 19 10° N
Do, 18.08. 16:30 11 2 18 10° N
Ortszeit Untergrenze Bedeckung Gattung
total tief tief mittel hoch
Do, 18.08. 14:00 630 m 7/8 7/8 - - -
Do, 18.08. 8:00 30 m 8/8 8/8 - - -
Do, 18.08. 2:00 - 0/8 0/8 - - -
Mi, 17.08. 20:00 630 m 1/8 1/8 - - -
Mi, 17.08. 14:00 2400 m 7/8 7/8 - - -
Mi, 17.08. 8:00 4500 m 8/8 8/8 - - -
Mi, 17.08. 2:00 4800 m 7/8 7/8 - - -
Di, 16.08. 20:00 7200 m 6/8 0/8 - - -
Ortszeit Bedeckungsgrad in Achtel und Wolkenuntergrenze
Do, 18.08. 19:30 2(9000m)
Do, 18.08. 19:20 2(9000m)
Do, 18.08. 19:10 2
Do, 18.08. 19:00 6(10500m) 7(10500m)
Do, 18.08. 18:50 6(10500m) 7(10500m)
Do, 18.08. 18:40 6
Do, 18.08. 18:30 1(10500m)
Do, 18.08. 18:00 2(10500m)
Do, 18.08. 17:30 2(10500m)
Do, 18.08. 17:00 keine Wolken
Do, 18.08. 16:30 2(1320m)
Ortszeit Luftdruck NN (hPa) Tendenz (hPa in 3 Std.)
Do, 18.08. 14:00 1014 - 0,3
Do, 18.08. 8:00 1013 + 0,6
Do, 18.08. 2:00 1013 + 0,5
Mi, 17.08. 20:00 1011 + 0,3
Mi, 17.08. 14:00 1011 + 0,4
Mi, 17.08. 8:00 1010 + 0,2
Mi, 17.08. 2:00 1010 - 0,4
Di, 16.08. 20:00 1009 0,0
Ortszeit Luftdruck NN (hPa) Tendenz (hPa in 3 Std.)
Do, 18.08. 19:30 1012 - 0,4
Do, 18.08. 19:20 1012 keine Meldung
Do, 18.08. 19:10 1012 keine Meldung
Do, 18.08. 19:00 1012 - 0,6
Do, 18.08. 18:50 1012 keine Meldung
Do, 18.08. 18:40 1013 keine Meldung
Do, 18.08. 18:30 1013 - 0,7
Do, 18.08. 18:00 1013 - 1,0
Do, 18.08. 17:30 1013 - 0,6
Do, 18.08. 17:00 1013 - 0,6
Do, 18.08. 16:30 1013 - 0,9
Ortszeit Schneehöhe (cm)
Do, 18.08. 14:00 0
Do, 18.08. 8:00 0
Do, 18.08. 2:00 0
Mi, 17.08. 20:00 0
Mi, 17.08. 14:00 0
Mi, 17.08. 8:00 0
Mi, 17.08. 2:00 0
Di, 16.08. 20:00 0
Ortszeit Schneehöhe (cm)
Do, 18.08. 19:30 0
Do, 18.08. 19:20 0
Do, 18.08. 19:10 0
Do, 18.08. 19:00 0
Do, 18.08. 18:50 0
Do, 18.08. 18:40 0
Do, 18.08. 18:30 0
Do, 18.08. 18:00 0
Do, 18.08. 17:30 0
Do, 18.08. 17:00 0
Do, 18.08. 16:30 0
Link zu dieser Seite / Seite empfehlen

Das Wetter in ...